createdAt,value
2019-01-29T00:00:46.008Z,2.92
2019-01-29T00:01:46.014Z,2.94
2019-01-29T00:02:46.045Z,2.84
2019-01-29T00:03:46.037Z,2.87
2019-01-29T00:04:46.049Z,2.87
2019-01-29T00:05:46.058Z,2.81
2019-01-29T00:06:46.069Z,2.73
2019-01-29T00:07:46.076Z,2.73
2019-01-29T00:08:46.092Z,2.74
2019-01-29T00:09:46.099Z,2.74
2019-01-29T00:10:46.114Z,2.77
2019-01-29T00:11:46.122Z,2.77
2019-01-29T00:12:46.132Z,2.71
2019-01-29T00:13:46.165Z,2.71
2019-01-29T00:14:46.149Z,2.71
2019-01-29T00:15:46.163Z,2.76
2019-01-29T00:16:46.170Z,2.73
2019-01-29T00:17:46.183Z,2.73
2019-01-29T00:18:46.194Z,2.61
2019-01-29T00:19:46.238Z,2.59
2019-01-29T00:20:46.247Z,2.58
2019-01-29T00:21:46.307Z,2.49
2019-01-29T00:22:46.240Z,2.52
2019-01-29T00:23:46.318Z,2.38
2019-01-29T00:24:46.262Z,2.49
2019-01-29T00:25:46.294Z,2.37
2019-01-29T00:26:46.290Z,2.48
2019-01-29T00:27:46.287Z,2.48
2019-01-29T00:28:46.302Z,2.40
2019-01-29T00:29:46.315Z,2.35
2019-01-29T00:30:46.320Z,2.35
2019-01-29T00:31:46.329Z,2.31
2019-01-29T00:32:46.346Z,2.31
2019-01-29T00:33:46.353Z,2.16
2019-01-29T00:34:46.360Z,2.17
2019-01-29T00:35:46.374Z,2.19
2019-01-29T00:36:46.383Z,2.22
2019-01-29T00:37:46.392Z,2.15
2019-01-29T00:38:46.402Z,2.06
2019-01-29T00:39:46.428Z,2.15
2019-01-29T00:40:46.423Z,2.08
2019-01-29T00:41:46.438Z,2.15
2019-01-29T00:42:46.444Z,2.08
2019-01-29T00:43:46.516Z,2.13
2019-01-29T00:44:46.468Z,2.15
2019-01-29T00:45:46.478Z,2.09
2019-01-29T00:46:46.487Z,2.13
2019-01-29T00:47:46.497Z,2.16
2019-01-29T00:48:46.517Z,2.15
2019-01-29T00:49:46.523Z,2.19
2019-01-29T00:50:46.531Z,2.20
2019-01-29T00:51:46.542Z,2.17
2019-01-29T00:52:46.553Z,2.12
2019-01-29T00:53:46.573Z,2.16
2019-01-29T00:54:46.579Z,2.31
2019-01-29T00:55:46.584Z,2.17
2019-01-29T00:56:46.595Z,2.17
2019-01-29T00:57:46.608Z,2.13
2019-01-29T00:58:46.621Z,2.15
2019-01-29T00:59:46.625Z,2.10
2019-01-29T01:00:46.641Z,2.13
2019-01-29T01:01:46.654Z,2.13
2019-01-29T01:02:46.670Z,2.12
2019-01-29T01:03:46.666Z,2.01
2019-01-29T01:04:46.682Z,2.04
2019-01-29T01:05:46.689Z,2.04
2019-01-29T01:06:46.703Z,1.91
2019-01-29T01:07:46.710Z,2.02
2019-01-29T01:08:46.719Z,2.10
2019-01-29T01:09:46.731Z,2.12
2019-01-29T01:10:46.743Z,2.12
2019-01-29T01:11:46.749Z,2.09
2019-01-29T01:12:46.764Z,2.08
2019-01-29T01:13:46.774Z,2.13
2019-01-29T01:14:46.784Z,2.22
2019-01-29T01:15:46.792Z,2.20
2019-01-29T01:16:46.808Z,2.12
2019-01-29T01:17:46.861Z,2.27
2019-01-29T01:18:46.820Z,2.30
2019-01-29T01:19:46.833Z,2.37
2019-01-29T01:20:46.843Z,2.34
2019-01-29T01:21:46.857Z,2.44
2019-01-29T01:22:51.295Z,2.37
2019-01-29T01:23:46.874Z,2.34
2019-01-29T01:24:46.881Z,2.35
2019-01-29T01:25:46.896Z,2.44
2019-01-29T01:26:46.909Z,2.52
2019-01-29T01:27:46.919Z,2.56
2019-01-29T01:28:46.954Z,2.61
2019-01-29T01:29:46.937Z,2.73
2019-01-29T01:30:46.948Z,2.76
2019-01-29T01:31:46.960Z,2.77
2019-01-29T01:32:46.968Z,2.71
2019-01-29T01:33:46.982Z,2.92
2019-01-29T01:34:46.992Z,2.85
2019-01-29T01:35:47.001Z,2.85
2019-01-29T01:36:47.011Z,2.91
2019-01-29T01:37:47.022Z,2.84
2019-01-29T01:38:47.033Z,2.82
2019-01-29T01:39:47.043Z,2.84
2019-01-29T01:40:47.054Z,2.87
2019-01-29T01:41:47.067Z,2.84
2019-01-29T01:42:47.074Z,2.84
2019-01-29T01:43:47.081Z,2.88
2019-01-29T01:44:47.096Z,2.88
2019-01-29T01:45:47.115Z,2.87
2019-01-29T01:46:47.116Z,2.84
2019-01-29T01:47:47.129Z,2.79
2019-01-29T01:48:47.138Z,2.74
2019-01-29T01:49:47.147Z,2.70
2019-01-29T01:50:47.161Z,2.71
2019-01-29T01:51:47.177Z,2.66
2019-01-29T01:52:47.179Z,2.56
2019-01-29T01:53:47.193Z,2.59
2019-01-29T01:54:47.208Z,2.49
2019-01-29T01:55:47.217Z,2.38
2019-01-29T01:56:47.222Z,2.38
2019-01-29T01:57:47.232Z,2.40
2019-01-29T01:58:47.252Z,2.37
2019-01-29T01:59:47.253Z,2.22
2019-01-29T02:00:47.266Z,2.26
2019-01-29T02:01:47.275Z,2.30
2019-01-29T02:02:47.291Z,2.16
2019-01-29T02:03:47.301Z,2.13
2019-01-29T02:04:47.305Z,2.09
2019-01-29T02:05:47.340Z,2.06
2019-01-29T02:06:47.337Z,2.08
2019-01-29T02:07:47.336Z,1.99
2019-01-29T02:08:47.352Z,2.04
2019-01-29T02:09:47.361Z,2.09
2019-01-29T02:10:47.369Z,2.10
2019-01-29T02:11:47.382Z,2.12
2019-01-29T02:12:47.390Z,2.09
2019-01-29T02:13:47.418Z,2.06
2019-01-29T02:14:47.408Z,2.09
2019-01-29T02:15:47.419Z,1.98
2019-01-29T02:16:47.431Z,2.08
2019-01-29T02:17:47.441Z,2.08
2019-01-29T02:18:47.454Z,2.08
2019-01-29T02:19:47.502Z,2.08
2019-01-29T02:20:47.470Z,2.15
2019-01-29T02:21:47.482Z,2.23
2019-01-29T02:22:47.492Z,2.22
2019-01-29T02:23:47.506Z,2.38
2019-01-29T02:24:47.520Z,2.31
2019-01-29T02:25:47.528Z,2.33
2019-01-29T02:26:47.537Z,2.23
2019-01-29T02:27:47.543Z,2.30
2019-01-29T02:28:47.555Z,2.22
2019-01-29T02:29:47.566Z,2.15
2019-01-29T02:30:47.578Z,2.16
2019-01-29T02:31:47.589Z,2.20
2019-01-29T02:32:47.604Z,2.17
2019-01-29T02:33:54.147Z,2.31
2019-01-29T02:34:47.623Z,2.34
2019-01-29T02:35:47.626Z,2.26
2019-01-29T02:36:47.651Z,2.30
2019-01-29T02:37:47.649Z,2.31
2019-01-29T02:38:47.662Z,2.33
2019-01-29T02:39:47.680Z,2.34
2019-01-29T02:40:47.687Z,2.33
2019-01-29T02:41:47.697Z,2.34
2019-01-29T02:42:47.763Z,2.37
2019-01-29T02:43:47.711Z,2.40
2019-01-29T02:44:47.719Z,2.38
2019-01-29T02:45:47.732Z,2.35
2019-01-29T02:46:47.743Z,2.51
2019-01-29T02:47:47.753Z,2.40
2019-01-29T02:48:47.767Z,2.49
2019-01-29T02:49:47.773Z,2.49
2019-01-29T02:50:47.783Z,2.56
2019-01-29T02:51:47.807Z,2.45
2019-01-29T02:52:47.808Z,2.44
2019-01-29T02:53:47.821Z,2.49
2019-01-29T02:54:47.839Z,2.48
2019-01-29T02:55:47.832Z,2.52
2019-01-29T02:56:47.850Z,2.52
2019-01-29T02:57:47.858Z,2.35
2019-01-29T02:58:47.872Z,2.35
2019-01-29T02:59:47.876Z,2.38
2019-01-29T03:00:47.886Z,2.40
2019-01-29T03:01:47.899Z,2.45
2019-01-29T03:02:47.908Z,2.40
2019-01-29T03:03:47.920Z,2.33
2019-01-29T03:04:47.933Z,2.26
2019-01-29T03:05:47.940Z,2.28
2019-01-29T03:06:47.952Z,2.26
2019-01-29T03:07:47.961Z,2.26
2019-01-29T03:08:47.968Z,2.16
2019-01-29T03:38:05.869Z,1.54
2019-01-29T03:39:05.846Z,1.55
2019-01-29T03:40:57.751Z,1.50
2019-01-29T03:41:57.738Z,1.44
2019-01-29T03:43:49.631Z,1.46
2019-01-29T03:44:49.636Z,1.44
2019-01-29T03:46:41.542Z,1.43
2019-01-29T03:47:41.524Z,1.43
2019-01-29T03:49:33.493Z,1.39
2019-01-29T03:50:33.498Z,1.37
2019-01-29T03:52:25.414Z,1.55
2019-01-29T03:53:25.391Z,1.51
2019-01-29T03:55:18.815Z,1.58
2019-01-29T03:56:18.803Z,1.52
2019-01-29T03:58:11.200Z,1.55
2019-01-29T03:59:11.200Z,1.52
2019-01-29T04:01:06.125Z,1.62
2019-01-29T04:02:06.108Z,1.71
2019-01-29T04:03:58.018Z,1.57
2019-01-29T04:04:58.021Z,1.61
2019-01-29T04:06:49.940Z,1.65
2019-01-29T04:07:49.927Z,1.60
2019-01-29T04:09:42.313Z,1.72
2019-01-29T04:10:42.332Z,1.69
2019-01-29T04:12:34.252Z,1.76
2019-01-29T04:13:34.221Z,1.71
2019-01-29T04:15:26.152Z,1.76
2019-01-29T04:16:26.132Z,1.68
2019-01-29T04:18:18.030Z,1.76
2019-01-29T04:19:18.035Z,1.78
2019-01-29T04:21:09.955Z,1.82
2019-01-29T04:22:09.935Z,1.85
2019-01-29T04:24:01.852Z,1.78
2019-01-29T04:25:01.861Z,1.75
2019-01-29T04:26:53.763Z,1.76
2019-01-29T04:27:53.746Z,1.73
2019-01-29T04:29:45.653Z,1.64
2019-01-29T04:30:45.657Z,1.69
2019-01-29T04:32:37.579Z,1.72
2019-01-29T04:33:37.558Z,1.73
2019-01-29T04:35:29.481Z,1.80
2019-01-29T04:36:29.466Z,1.79
2019-01-29T04:38:21.376Z,2.04
2019-01-29T04:39:21.370Z,2.08
2019-01-29T04:41:13.299Z,2.10
2019-01-29T04:42:13.285Z,2.12
2019-01-29T04:44:05.193Z,2.09
2019-01-29T04:45:05.197Z,2.19
2019-01-29T04:46:57.126Z,2.19
2019-01-29T04:47:57.098Z,2.19
2019-01-29T04:49:49.007Z,2.20
2019-01-29T04:50:49.009Z,2.23
2019-01-29T04:52:40.943Z,2.23
2019-01-29T04:53:40.924Z,2.30
2019-01-29T04:55:32.846Z,2.37
2019-01-29T04:56:32.828Z,2.33
2019-01-29T04:58:24.748Z,2.35
2019-01-29T04:59:24.740Z,2.41
2019-01-29T05:01:18.459Z,2.38
2019-01-29T05:02:16.652Z,2.45
2019-01-29T05:04:08.565Z,2.44
2019-01-29T05:05:08.568Z,2.38
2019-01-29T05:07:00.513Z,2.35
2019-01-29T05:08:00.475Z,2.40
2019-01-29T05:09:52.869Z,2.55
2019-01-29T05:10:52.878Z,2.69
2019-01-29T05:12:44.827Z,2.51
2019-01-29T05:13:44.793Z,2.55
2019-01-29T05:15:36.721Z,2.56
2019-01-29T05:16:36.706Z,2.67
2019-01-29T05:18:28.620Z,2.67
2019-01-29T05:19:28.619Z,2.66
2019-01-29T05:21:20.576Z,2.59
2019-01-29T05:22:20.523Z,2.63
2019-01-29T05:24:12.927Z,2.59
2019-01-29T05:25:12.934Z,2.59
2019-01-29T05:27:04.859Z,2.64
2019-01-29T05:28:04.847Z,2.67
2019-01-29T05:29:56.752Z,2.52
2019-01-29T05:30:56.755Z,2.51
2019-01-29T05:32:48.674Z,2.37
2019-01-29T05:33:48.663Z,2.37
2019-01-29T05:35:40.609Z,2.46
2019-01-29T05:36:40.585Z,2.34
2019-01-29T05:38:32.492Z,2.31
2019-01-29T05:39:32.503Z,2.33
2019-01-29T05:41:24.418Z,2.15
2019-01-29T05:42:24.400Z,2.17
2019-01-29T05:44:16.313Z,2.17
2019-01-29T05:45:16.313Z,2.13
2019-01-29T05:47:08.236Z,2.22
2019-01-29T05:48:08.222Z,2.06
2019-01-29T05:50:00.284Z,2.15
2019-01-29T05:51:00.144Z,2.08
2019-01-29T05:52:52.046Z,1.97
2019-01-29T05:53:52.037Z,2.02
2019-01-29T05:55:43.947Z,1.97
2019-01-29T05:56:43.955Z,1.89
2019-01-29T05:58:35.877Z,1.82
2019-01-29T05:59:35.849Z,1.87
2019-01-29T06:01:27.788Z,1.90
2019-01-29T06:02:27.765Z,1.91
2019-01-29T06:04:19.658Z,1.94
2019-01-29T06:05:19.684Z,1.85
2019-01-29T06:07:11.587Z,1.83
2019-01-29T06:08:11.573Z,1.72
2019-01-29T06:10:03.475Z,1.69
2019-01-29T06:11:03.478Z,1.72
2019-01-29T06:12:55.404Z,1.69
2019-01-29T06:13:55.388Z,1.71
2019-01-29T06:15:47.295Z,1.69
2019-01-29T06:16:47.298Z,1.76
2019-01-29T06:18:39.213Z,1.75
2019-01-29T06:19:39.201Z,1.69
2019-01-29T06:21:31.127Z,1.71
2019-01-29T06:22:31.111Z,1.69
2019-01-29T06:24:25.777Z,1.69
2019-01-29T06:25:23.021Z,1.73
2019-01-29T06:27:14.940Z,1.72
2019-01-29T06:28:14.924Z,1.65
2019-01-29T06:30:06.830Z,1.83
2019-01-29T06:31:06.825Z,1.79
2019-01-29T06:32:58.749Z,1.79
2019-01-29T06:33:58.732Z,1.85
2019-01-29T06:35:50.641Z,1.91
2019-01-29T06:36:51.013Z,1.91
2019-01-29T06:38:42.561Z,1.99
2019-01-29T06:39:42.551Z,1.87
2019-01-29T06:41:34.470Z,2.04
2019-01-29T06:42:34.457Z,2.02
2019-01-29T06:44:26.368Z,2.19
2019-01-29T06:45:26.414Z,2.23
2019-01-29T06:47:18.292Z,2.22
2019-01-29T06:48:18.273Z,2.28
2019-01-29T06:50:10.178Z,2.28
2019-01-29T06:51:10.185Z,2.30
2019-01-29T06:53:02.093Z,2.37
2019-01-29T06:54:02.081Z,2.35
2019-01-29T06:55:53.984Z,2.51
2019-01-29T06:56:53.981Z,2.53
2019-01-29T06:58:45.912Z,2.52
2019-01-29T06:59:45.898Z,2.46
2019-01-29T07:01:37.825Z,2.51
2019-01-29T07:02:37.809Z,2.48
2019-01-29T07:04:29.710Z,2.51
2019-01-29T07:05:29.714Z,2.53
2019-01-29T07:07:21.636Z,2.55
2019-01-29T07:08:21.613Z,2.52
2019-01-29T07:10:13.527Z,2.58
2019-01-29T07:11:13.522Z,2.67
2019-01-29T07:13:05.952Z,2.63
2019-01-29T07:14:05.934Z,2.49
2019-01-29T07:15:57.833Z,2.58
2019-01-29T07:16:57.839Z,2.59
2019-01-29T07:18:49.766Z,2.52
2019-01-29T07:19:49.744Z,2.55
2019-01-29T07:21:42.579Z,2.64
2019-01-29T07:22:41.648Z,2.55
2019-01-29T07:24:42.437Z,2.52
2019-01-29T07:25:34.052Z,2.55
2019-01-29T07:27:25.971Z,2.55
2019-01-29T07:28:25.956Z,2.64
2019-01-29T07:30:17.866Z,2.55
2019-01-29T07:31:17.879Z,2.71
2019-01-29T07:33:09.796Z,2.67
2019-01-29T07:34:09.772Z,2.69
2019-01-29T07:36:01.689Z,2.74
2019-01-29T07:37:01.723Z,2.79
2019-01-29T07:38:53.599Z,2.76
2019-01-29T07:39:53.580Z,2.73
2019-01-29T07:41:45.486Z,2.76
2019-01-29T07:42:45.486Z,2.71
2019-01-29T07:44:37.404Z,2.76
2019-01-29T07:45:37.397Z,2.77
2019-01-29T07:47:29.312Z,2.74
2019-01-29T07:48:29.301Z,2.77
2019-01-29T07:50:21.206Z,2.74
2019-01-29T07:51:21.209Z,2.85
2019-01-29T07:53:13.168Z,2.77
2019-01-29T07:54:13.125Z,2.77
2019-01-29T07:56:05.019Z,2.71
2019-01-29T07:57:05.030Z,2.67
2019-01-29T07:58:56.955Z,2.61
2019-01-29T07:59:56.947Z,2.64
2019-01-29T08:01:48.852Z,2.61
2019-01-29T08:02:48.855Z,2.58
2019-01-29T08:04:41.269Z,2.58
2019-01-29T08:05:41.256Z,2.70
2019-01-29T08:07:33.290Z,2.70
2019-01-29T08:08:33.224Z,2.73
2019-01-29T08:10:25.130Z,2.69
2019-01-29T08:11:25.138Z,2.79
2019-01-29T08:13:17.055Z,2.70
2019-01-29T08:14:17.040Z,2.73
2019-01-29T08:16:09.470Z,2.89
2019-01-29T08:17:09.537Z,2.76
2019-01-29T08:19:01.368Z,2.81
2019-01-29T08:20:01.364Z,2.77
2019-01-29T08:21:53.269Z,2.91
2019-01-29T08:22:53.360Z,2.94
2019-01-29T08:24:51.754Z,2.92
2019-01-29T08:25:47.822Z,2.98
2019-01-29T08:27:37.095Z,2.97
2019-01-29T08:28:37.076Z,2.97
2019-01-29T08:30:28.983Z,3.00
2019-01-29T08:31:29.111Z,3.05
2019-01-29T08:33:20.905Z,3.12
2019-01-29T08:34:20.898Z,3.07
2019-01-29T08:36:12.801Z,3.16
2019-01-29T08:37:12.797Z,3.25
2019-01-29T08:39:04.754Z,3.27
2019-01-29T08:40:04.708Z,3.39
2019-01-29T08:41:56.603Z,3.52
2019-01-29T08:42:56.608Z,3.60
2019-01-29T08:44:48.542Z,3.70
2019-01-29T08:45:48.526Z,3.67
2019-01-29T08:47:40.442Z,3.75
2019-01-29T08:48:40.430Z,3.75
2019-01-29T08:50:32.344Z,3.80
2019-01-29T08:51:32.342Z,3.72
2019-01-29T08:53:24.333Z,3.82
2019-01-29T08:54:24.331Z,3.89
2019-01-29T08:56:16.248Z,3.94
2019-01-29T08:57:16.258Z,3.94
2019-01-29T08:59:08.171Z,3.98
2019-01-29T09:00:08.159Z,4.08
2019-01-29T09:02:00.065Z,4.08
2019-01-29T09:03:00.084Z,4.12
2019-01-29T09:04:52.001Z,4.14
2019-01-29T09:05:51.979Z,4.15
2019-01-29T09:07:43.900Z,4.19
2019-01-29T09:08:43.889Z,4.22
2019-01-29T09:10:35.788Z,4.25
2019-01-29T09:11:35.794Z,4.16
2019-01-29T09:13:27.713Z,4.15
2019-01-29T09:14:27.716Z,4.24
2019-01-29T09:16:19.610Z,4.06
2019-01-29T09:17:19.629Z,4.06
2019-01-29T09:19:11.534Z,4.22
2019-01-29T09:20:11.516Z,4.18
2019-01-29T09:22:03.413Z,4.37
2019-01-29T09:23:03.429Z,4.29
2019-01-29T09:24:55.354Z,4.50
2019-01-29T09:25:55.336Z,4.55
2019-01-29T09:27:47.306Z,4.69
2019-01-29T09:28:47.253Z,4.72
2019-01-29T09:30:39.182Z,4.95
2019-01-29T09:31:39.152Z,5.02
2019-01-29T09:33:31.105Z,5.25
2019-01-29T09:34:31.087Z,5.35
2019-01-29T09:36:22.988Z,5.41
2019-01-29T09:37:23.001Z,5.53
2019-01-29T09:39:14.919Z,5.57
2019-01-29T09:40:14.904Z,5.56
2019-01-29T09:42:06.814Z,5.60
2019-01-29T09:43:06.808Z,5.53
2019-01-29T09:44:58.735Z,5.50
2019-01-29T09:45:58.718Z,5.52
2019-01-29T09:47:50.625Z,5.19
2019-01-29T09:48:50.629Z,5.10
2019-01-29T09:50:42.560Z,5.19
2019-01-29T09:51:42.538Z,4.99
2019-01-29T09:53:34.463Z,5.07
2019-01-29T09:54:34.449Z,5.09
2019-01-29T09:56:26.366Z,5.12
2019-01-29T09:57:26.366Z,5.02
2019-01-29T09:59:18.325Z,5.07
2019-01-29T10:00:18.289Z,5.05
2019-01-29T10:02:11.643Z,5.17
2019-01-29T10:03:10.495Z,5.25
2019-01-29T10:05:02.202Z,5.25
2019-01-29T10:06:02.360Z,5.22
2019-01-29T10:07:54.091Z,5.20
2019-01-29T10:08:54.093Z,5.14
2019-01-29T10:09:54.105Z,5.22
2019-01-29T10:10:54.118Z,5.20
2019-01-29T10:11:54.124Z,5.17
2019-01-29T10:12:54.135Z,5.19
2019-01-29T10:13:54.150Z,5.14
2019-01-29T10:14:55.045Z,5.23
2019-01-29T10:15:54.176Z,5.20
2019-01-29T10:16:54.192Z,5.07
2019-01-29T10:17:54.203Z,5.23
2019-01-29T10:18:54.219Z,5.22
2019-01-29T10:20:02.305Z,5.17
2019-01-29T10:20:54.241Z,5.20
2019-01-29T10:21:54.271Z,5.32
2019-01-29T10:22:54.269Z,5.27
2019-01-29T10:23:54.275Z,5.32
2019-01-29T10:24:54.289Z,5.30
2019-01-29T10:25:54.312Z,5.38
2019-01-29T10:26:54.320Z,5.28
2019-01-29T10:27:54.325Z,5.31
2019-01-29T10:28:54.333Z,5.35
2019-01-29T10:29:54.349Z,5.34
2019-01-29T10:30:54.393Z,5.34
2019-01-29T10:31:54.372Z,5.37
2019-01-29T10:32:54.390Z,5.48
2019-01-29T10:33:54.392Z,5.52
2019-01-29T10:34:54.412Z,5.56
2019-01-29T10:35:54.420Z,5.48
2019-01-29T10:36:54.442Z,5.55
2019-01-29T10:37:54.444Z,5.46
2019-01-29T10:38:54.469Z,5.49
2019-01-29T10:39:54.484Z,5.55
2019-01-29T10:40:54.490Z,5.55
2019-01-29T10:41:54.502Z,5.45
2019-01-29T10:42:54.516Z,5.53
2019-01-29T10:43:54.525Z,5.59
2019-01-29T10:44:54.556Z,5.53
2019-01-29T10:45:54.547Z,5.48
2019-01-29T10:46:54.560Z,5.50
2019-01-29T10:47:54.634Z,5.50
2019-01-29T10:48:54.601Z,5.55
2019-01-29T10:49:54.592Z,5.59
2019-01-29T10:50:54.631Z,5.60
2019-01-29T10:51:54.622Z,5.70
2019-01-29T10:52:54.635Z,5.68
2019-01-29T10:53:54.651Z,5.67
2019-01-29T10:54:54.654Z,5.70
2019-01-29T10:55:54.669Z,5.67
2019-01-29T10:56:54.682Z,5.66
2019-01-29T10:57:54.694Z,5.70
2019-01-29T10:58:54.711Z,5.73
2019-01-29T10:59:54.720Z,5.67
2019-01-29T11:00:54.733Z,5.78
2019-01-29T11:01:54.737Z,5.81
2019-01-29T11:02:54.768Z,5.82
2019-01-29T11:03:54.769Z,5.82
2019-01-29T11:04:54.787Z,5.77
2019-01-29T11:05:54.795Z,5.83
2019-01-29T11:06:54.811Z,5.85
2019-01-29T11:07:54.812Z,5.98
2019-01-29T11:08:54.829Z,6.00
2019-01-29T11:09:54.845Z,6.00
2019-01-29T11:10:54.857Z,6.10
2019-01-29T11:11:54.864Z,6.03
2019-01-29T11:12:54.880Z,6.06
2019-01-29T11:13:54.893Z,6.04
2019-01-29T11:14:54.916Z,6.11
2019-01-29T11:15:54.914Z,6.09
2019-01-29T11:16:54.932Z,6.04
2019-01-29T11:17:54.947Z,6.07
2019-01-29T11:19:02.924Z,6.04
2019-01-29T11:19:54.966Z,6.04
2019-01-29T11:20:54.973Z,6.10
2019-01-29T11:21:55.965Z,6.22
2019-01-29T11:22:55.005Z,6.19
2019-01-29T11:23:55.027Z,6.22
2019-01-29T11:24:55.035Z,6.11
2019-01-29T11:25:55.972Z,6.18
2019-01-29T11:26:55.052Z,6.09
2019-01-29T11:27:55.072Z,6.03
2019-01-29T11:28:55.079Z,6.10
2019-01-29T11:29:55.092Z,6.06
2019-01-29T11:30:55.106Z,6.09
2019-01-29T11:31:55.133Z,6.16
2019-01-29T11:32:55.140Z,6.10
2019-01-29T11:33:55.157Z,6.09
2019-01-29T11:34:55.160Z,6.06
2019-01-29T11:35:55.176Z,6.21
2019-01-29T11:37:55.207Z,6.25
2019-01-29T11:38:55.227Z,6.28
2019-01-29T11:39:55.222Z,6.26
2019-01-29T11:40:55.244Z,6.29
2019-01-29T11:41:55.250Z,6.32
2019-01-29T11:42:55.272Z,6.28
2019-01-29T11:44:16.288Z,6.26
2019-01-29T11:44:55.286Z,6.29
2019-01-29T11:45:55.305Z,6.30
2019-01-29T11:46:55.321Z,6.30
2019-01-29T11:47:55.324Z,6.35
2019-01-29T11:48:55.351Z,6.33
2019-01-29T11:50:16.371Z,6.36
2019-01-29T11:50:55.370Z,6.41
2019-01-29T11:51:55.382Z,6.44
2019-01-29T11:52:55.409Z,6.35
2019-01-29T11:53:55.412Z,6.35
2019-01-29T11:54:55.413Z,6.51
2019-01-29T11:56:16.442Z,6.59
2019-01-29T11:56:55.452Z,6.59
2019-01-29T11:57:55.453Z,6.66
2019-01-29T11:58:55.465Z,6.61
2019-01-29T11:59:55.486Z,6.80
2019-01-29T12:00:55.495Z,6.83
2019-01-29T12:02:16.524Z,6.63
2019-01-29T12:02:55.521Z,6.72
2019-01-29T12:03:55.538Z,6.83
2019-01-29T12:04:55.539Z,6.76
2019-01-29T12:05:55.569Z,6.89
2019-01-29T12:06:55.907Z,6.98
2019-01-29T12:08:16.668Z,6.97
2019-01-29T12:08:55.625Z,7.08
2019-01-29T12:09:56.558Z,7.07
2019-01-29T12:10:55.643Z,7.13
2019-01-29T12:11:55.636Z,7.24
2019-01-29T12:12:55.641Z,7.20
2019-01-29T12:14:16.672Z,7.27
2019-01-29T12:14:55.672Z,7.23
2019-01-29T12:15:55.687Z,7.35
2019-01-29T12:16:55.705Z,7.22
2019-01-29T12:17:55.717Z,7.31
2019-01-29T12:18:55.729Z,7.24
2019-01-29T12:20:16.753Z,7.23
2019-01-29T12:20:55.751Z,7.35
2019-01-29T12:21:55.825Z,7.42
2019-01-29T12:22:55.776Z,7.47
2019-01-29T12:23:55.793Z,7.49
2019-01-29T12:24:55.801Z,7.58
2019-01-29T12:26:16.848Z,7.42
2019-01-29T12:26:55.835Z,7.31
2019-01-29T12:27:55.852Z,7.13
2019-01-29T12:28:55.857Z,7.09
2019-01-29T12:29:55.872Z,6.94
2019-01-29T12:30:55.904Z,6.83
2019-01-29T12:32:16.972Z,6.80
2019-01-29T12:32:55.924Z,6.68
2019-01-29T12:33:55.924Z,6.79
2019-01-29T12:34:55.949Z,6.66
2019-01-29T12:35:55.957Z,6.66
2019-01-29T12:36:55.964Z,6.69
2019-01-29T12:38:16.987Z,6.66
2019-01-29T12:38:55.987Z,6.56
2019-01-29T12:39:56.001Z,6.65
2019-01-29T12:40:56.014Z,6.68
2019-01-29T12:41:56.026Z,6.54
2019-01-29T12:42:56.053Z,6.43
2019-01-29T12:44:17.058Z,6.38
2019-01-29T12:44:56.068Z,6.35
2019-01-29T12:45:56.081Z,6.48
2019-01-29T12:46:56.091Z,6.50
2019-01-29T12:47:56.110Z,6.62
2019-01-29T12:48:56.123Z,6.62
2019-01-29T12:50:17.157Z,6.77
2019-01-29T12:50:56.148Z,6.65
2019-01-29T12:51:56.166Z,6.79
2019-01-29T12:52:56.172Z,6.71
2019-01-29T12:53:56.180Z,6.72
2019-01-29T12:54:56.198Z,6.79
2019-01-29T12:56:21.558Z,6.81
2019-01-29T12:56:56.226Z,6.94
2019-01-29T12:57:56.242Z,6.94
2019-01-29T12:58:56.250Z,6.86
2019-01-29T12:59:56.258Z,6.91
2019-01-29T13:00:56.288Z,6.89
2019-01-29T13:02:17.321Z,6.90
2019-01-29T13:02:56.308Z,6.87
2019-01-29T13:03:56.320Z,6.90
2019-01-29T13:04:56.321Z,6.98
2019-01-29T13:05:56.335Z,6.99
2019-01-29T13:06:56.365Z,6.97
2019-01-29T13:08:17.373Z,7.08
2019-01-29T13:08:56.377Z,7.05
2019-01-29T13:09:56.390Z,7.09
2019-01-29T13:10:56.398Z,7.13
2019-01-29T13:11:56.414Z,7.19
2019-01-29T13:12:56.427Z,7.15
2019-01-29T13:14:17.465Z,7.07
2019-01-29T13:14:56.464Z,7.05
2019-01-29T13:15:56.470Z,6.80
2019-01-29T13:16:56.483Z,6.81
2019-01-29T13:17:56.488Z,6.72
2019-01-29T13:18:56.509Z,6.66
2019-01-29T13:20:17.563Z,6.73
2019-01-29T13:20:56.533Z,6.56
2019-01-29T13:21:56.547Z,6.44
2019-01-29T13:22:56.558Z,6.33
2019-01-29T13:23:56.567Z,6.25
2019-01-29T13:24:56.607Z,6.29
2019-01-29T13:26:17.628Z,6.28
2019-01-29T13:26:56.605Z,6.25
2019-01-29T13:27:56.622Z,6.28
2019-01-29T13:28:56.630Z,6.43
2019-01-29T13:29:56.682Z,6.47
2019-01-29T13:30:56.677Z,6.41
2019-01-29T13:32:17.688Z,6.58
2019-01-29T13:32:56.685Z,6.69
2019-01-29T13:33:56.696Z,6.72
2019-01-29T13:34:56.720Z,6.68
2019-01-29T13:35:56.730Z,6.84
2019-01-29T13:36:56.744Z,6.79
2019-01-29T13:38:17.783Z,6.81
2019-01-29T13:38:56.760Z,6.66
2019-01-29T13:39:56.817Z,6.61
2019-01-29T13:40:56.794Z,6.47
2019-01-29T13:41:56.808Z,6.38
2019-01-29T13:42:56.829Z,6.28
2019-01-29T13:44:17.845Z,6.26
2019-01-29T13:44:56.837Z,6.29
2019-01-29T13:45:56.863Z,6.32
2019-01-29T13:46:56.867Z,6.44
2019-01-29T13:47:56.876Z,6.41
2019-01-29T13:48:56.888Z,6.30
2019-01-29T13:50:17.934Z,6.36
2019-01-29T13:50:56.919Z,6.40
2019-01-29T13:51:56.934Z,6.28
2019-01-29T13:52:56.941Z,6.33
2019-01-29T13:53:56.962Z,6.46
2019-01-29T13:54:56.971Z,6.53
2019-01-29T13:56:17.988Z,6.63
2019-01-29T13:56:56.995Z,6.61
2019-01-29T13:57:57.021Z,6.61
2019-01-29T13:58:57.018Z,6.65
2019-01-29T13:59:57.030Z,6.68
2019-01-29T14:00:57.042Z,6.73
2019-01-29T14:02:18.078Z,6.80
2019-01-29T14:02:57.092Z,6.84
2019-01-29T14:04:05.794Z,6.95
2019-01-29T14:04:57.092Z,7.02
2019-01-29T14:05:57.117Z,7.07
2019-01-29T14:06:57.158Z,7.02
2019-01-29T14:08:18.220Z,7.01
2019-01-29T14:08:57.154Z,6.94
2019-01-29T14:09:57.159Z,7.07
2019-01-29T14:10:58.146Z,7.01
2019-01-29T14:11:57.184Z,6.98
2019-01-29T14:12:57.201Z,6.97
2019-01-29T14:14:18.225Z,6.99
2019-01-29T14:14:57.224Z,6.87
2019-01-29T14:15:57.234Z,6.86
2019-01-29T14:16:57.246Z,6.71
2019-01-29T14:17:57.263Z,6.66
2019-01-29T14:18:57.286Z,6.66
2019-01-29T14:20:18.317Z,6.48
2019-01-29T14:20:57.309Z,6.35
2019-01-29T14:21:57.423Z,6.40
2019-01-29T14:22:57.333Z,6.44
2019-01-29T14:23:57.332Z,6.51
2019-01-29T14:24:57.370Z,6.40
2019-01-29T14:26:18.375Z,6.25
2019-01-29T14:26:57.383Z,6.33
2019-01-29T14:27:57.385Z,6.40
2019-01-29T14:28:57.412Z,6.44
2019-01-29T14:29:57.433Z,6.50
2019-01-29T14:30:57.439Z,6.47
2019-01-29T14:32:18.471Z,6.53
2019-01-29T14:32:57.454Z,6.43
2019-01-29T14:33:57.464Z,6.41
2019-01-29T14:34:57.475Z,6.47
2019-01-29T14:35:57.488Z,6.36
2019-01-29T14:36:57.517Z,6.51
2019-01-29T14:38:18.552Z,6.58
2019-01-29T14:38:57.536Z,6.51
2019-01-29T14:39:58.153Z,6.44
2019-01-29T14:40:57.561Z,6.43
2019-01-29T14:41:57.566Z,6.47
2019-01-29T14:42:57.583Z,6.38
2019-01-29T14:44:18.606Z,6.26
2019-01-29T14:44:57.600Z,6.29
2019-01-29T14:45:58.584Z,6.32
2019-01-29T14:46:57.638Z,6.28
2019-01-29T14:47:57.660Z,6.14
2019-01-29T14:48:57.661Z,6.19
2019-01-29T14:50:18.685Z,6.04
2019-01-29T14:50:57.679Z,5.95
2019-01-29T14:51:57.692Z,5.95
2019-01-29T14:52:57.709Z,5.98
2019-01-29T14:53:57.772Z,5.86
2019-01-29T14:54:57.730Z,5.75
2019-01-29T14:56:18.774Z,5.78
2019-01-29T14:56:57.775Z,5.64
2019-01-29T14:57:57.773Z,5.64
2019-01-29T14:58:57.780Z,5.59
2019-01-29T14:59:57.802Z,5.70
2019-01-29T15:00:57.811Z,5.68
2019-01-29T15:02:18.826Z,5.66
2019-01-29T15:02:57.836Z,5.66
2019-01-29T15:03:57.838Z,5.74
2019-01-29T15:04:57.873Z,5.75
2019-01-29T15:05:57.883Z,5.70
2019-01-29T15:06:57.887Z,5.73
2019-01-29T15:08:18.923Z,5.75
2019-01-29T15:08:57.904Z,5.81
2019-01-29T15:09:57.933Z,5.85
2019-01-29T15:10:57.937Z,5.74
2019-01-29T15:11:57.943Z,5.63
2019-01-29T15:12:57.956Z,5.56
2019-01-29T15:14:18.982Z,5.48
2019-01-29T15:14:57.994Z,5.57
2019-01-29T15:15:58.004Z,5.53
2019-01-29T15:16:58.013Z,5.53
2019-01-29T15:17:58.024Z,5.56
2019-01-29T15:18:58.036Z,5.57
2019-01-29T15:20:19.054Z,5.60
2019-01-29T15:20:58.057Z,5.60
2019-01-29T15:21:58.066Z,5.59
2019-01-29T15:22:58.081Z,5.55
2019-01-29T15:23:58.087Z,5.59
2019-01-29T15:24:58.098Z,5.55
2019-01-29T15:26:19.130Z,5.57
2019-01-29T15:27:05.478Z,5.60
2019-01-29T15:27:58.144Z,5.52
2019-01-29T15:28:58.149Z,5.56
2019-01-29T15:29:58.162Z,5.57
2019-01-29T15:30:58.179Z,5.71
2019-01-29T15:32:19.211Z,5.64
2019-01-29T15:32:58.223Z,5.66
2019-01-29T15:33:58.212Z,5.68
2019-01-29T15:34:58.252Z,5.66
2019-01-29T15:35:58.244Z,5.67
2019-01-29T15:36:58.244Z,5.63
2019-01-29T15:38:19.285Z,5.60
2019-01-29T15:38:58.275Z,5.68
2019-01-29T15:39:58.278Z,5.66
2019-01-29T15:40:58.288Z,5.60
2019-01-29T15:41:58.313Z,5.64
2019-01-29T15:42:58.326Z,5.57
2019-01-29T15:44:19.342Z,5.57
2019-01-29T15:44:58.973Z,5.50
2019-01-29T15:45:58.360Z,5.50